createdAt,value
2019-01-20T00:00:08.597Z,-1.30
2019-01-20T00:01:13.723Z,-1.30
2019-01-20T00:02:18.587Z,-1.30
2019-01-20T00:03:23.445Z,-1.30
2019-01-20T00:04:28.365Z,-1.30
2019-01-20T00:05:33.364Z,-1.30
2019-01-20T00:06:38.355Z,-1.30
2019-01-20T00:07:43.338Z,-1.30
2019-01-20T00:08:48.464Z,-1.30
2019-01-20T00:09:53.394Z,-1.30
2019-01-20T00:10:58.091Z,-1.30
2019-01-20T00:12:02.841Z,-1.30
2019-01-20T00:13:08.039Z,-1.20
2019-01-20T00:14:13.311Z,-1.30
2019-01-20T00:15:18.592Z,-1.30
2019-01-20T00:16:23.529Z,-1.20
2019-01-20T00:17:29.581Z,-1.20
2019-01-20T00:18:34.447Z,-1.10
2019-01-20T00:19:40.932Z,-1.10
2019-01-20T00:20:45.851Z,-1.10
2019-01-20T00:21:51.448Z,-1.20
2019-01-20T00:22:56.323Z,-1.10
2019-01-20T00:24:01.172Z,-1.10
2019-01-20T00:25:06.759Z,-1.10
2019-01-20T00:26:11.602Z,-1.10
2019-01-20T00:27:16.744Z,-1.00
2019-01-20T00:28:21.688Z,-1.00
2019-01-20T00:29:26.441Z,-0.90
2019-01-20T00:30:31.266Z,-0.90
2019-01-20T00:31:36.023Z,-0.90
2019-01-20T00:32:40.897Z,-0.90
2019-01-20T00:33:46.516Z,-0.90
2019-01-20T00:34:51.213Z,-0.80
2019-01-20T00:35:56.165Z,-0.80
2019-01-20T00:37:01.116Z,-0.80
2019-01-20T00:38:06.124Z,-0.80
2019-01-20T00:39:10.984Z,-0.80
2019-01-20T00:40:16.320Z,-0.80
2019-01-20T00:41:24.187Z,-0.80
2019-01-20T00:42:27.928Z,-0.80
2019-01-20T00:43:32.707Z,-0.80
2019-01-20T00:44:37.583Z,-0.80
2019-01-20T00:45:42.395Z,-0.80
2019-01-20T00:46:47.207Z,-0.80
2019-01-20T00:47:52.252Z,-0.90
2019-01-20T00:48:57.137Z,-0.80
2019-01-20T00:50:01.932Z,-0.80
2019-01-20T00:51:06.921Z,-0.80
2019-01-20T00:52:11.796Z,-0.80
2019-01-20T00:53:16.552Z,-0.80
2019-01-20T00:54:21.626Z,-0.90
2019-01-20T00:55:26.591Z,-0.90
2019-01-20T00:56:32.588Z,-0.80
2019-01-20T00:57:37.703Z,-0.80
2019-01-20T00:58:42.526Z,-0.80
2019-01-20T00:59:47.323Z,-0.70
2019-01-20T01:00:52.104Z,-0.70
2019-01-20T01:01:56.895Z,-0.70
2019-01-20T01:03:01.852Z,-0.70
2019-01-20T01:04:06.780Z,-0.80
2019-01-20T01:05:11.907Z,-0.80
2019-01-20T01:06:17.471Z,-0.80
2019-01-20T01:07:22.200Z,-0.80
2019-01-20T01:08:26.968Z,-0.80
2019-01-20T01:09:31.736Z,-0.80
2019-01-20T01:10:36.732Z,-0.70
2019-01-20T01:11:41.481Z,-0.70
2019-01-20T01:12:46.596Z,-0.60
2019-01-20T01:13:51.324Z,-0.70
2019-01-20T01:14:56.084Z,-0.70
2019-01-20T01:16:00.869Z,-0.70
2019-01-20T01:17:05.684Z,-0.70
2019-01-20T01:18:10.419Z,-0.70
2019-01-20T01:19:15.199Z,-0.60
2019-01-20T01:20:20.585Z,-0.60
2019-01-20T01:21:25.355Z,-0.70
2019-01-20T01:22:30.074Z,-0.70
2019-01-20T01:23:34.831Z,-0.70
2019-01-20T01:24:39.647Z,-0.70
2019-01-20T01:25:44.384Z,-0.70
2019-01-20T01:26:49.155Z,-0.70
2019-01-20T01:27:53.916Z,-0.70
2019-01-20T01:28:59.527Z,-0.80
2019-01-20T01:30:05.151Z,-0.80
2019-01-20T01:31:09.893Z,-0.80
2019-01-20T01:32:14.699Z,-0.70
2019-01-20T01:33:19.481Z,-0.80
2019-01-20T01:34:24.224Z,-0.70
2019-01-20T01:35:29.079Z,-0.70
2019-01-20T01:36:33.859Z,-0.70
2019-01-20T01:37:38.740Z,-0.70
2019-01-20T01:38:43.521Z,-0.80
2019-01-20T01:39:48.297Z,-0.90
2019-01-20T01:40:53.024Z,-0.90
2019-01-20T01:41:57.807Z,-1.00
2019-01-20T01:43:02.557Z,-1.00
2019-01-20T01:44:07.431Z,-1.00
2019-01-20T01:45:14.776Z,-0.90
2019-01-20T01:46:19.528Z,-0.90
2019-01-20T01:47:24.300Z,-0.90
2019-01-20T01:48:29.027Z,-0.90
2019-01-20T01:49:33.784Z,-0.90
2019-01-20T01:50:38.515Z,-0.90
2019-01-20T01:51:43.276Z,-0.90
2019-01-20T01:52:48.160Z,-0.90
2019-01-20T01:53:53.295Z,-0.80
2019-01-20T01:54:58.084Z,-0.80
2019-01-20T01:56:02.931Z,-0.80
2019-01-20T01:57:07.836Z,-0.80
2019-01-20T01:58:12.583Z,-0.70
2019-01-20T01:59:17.526Z,-0.70
2019-01-20T02:00:24.109Z,-0.70
2019-01-20T02:01:28.887Z,-0.70
2019-01-20T02:02:33.679Z,-0.80
2019-01-20T02:03:38.491Z,-0.80
2019-01-20T02:04:43.223Z,-0.80
2019-01-20T02:05:47.984Z,-0.70
2019-01-20T02:06:52.732Z,-0.80
2019-01-20T02:07:57.499Z,-0.80
2019-01-20T02:09:02.238Z,-0.80
2019-01-20T02:10:09.432Z,-0.80
2019-01-20T02:11:14.173Z,-0.70
2019-01-20T02:12:18.990Z,-0.70
2019-01-20T02:13:23.799Z,-0.80
2019-01-20T02:14:28.532Z,-0.80
2019-01-20T02:15:33.309Z,-0.90
2019-01-20T02:16:38.049Z,-0.90
2019-01-20T02:17:43.037Z,-0.90
2019-01-20T02:18:47.924Z,-1.00
2019-01-20T02:19:52.678Z,-0.90
2019-01-20T02:20:57.527Z,-1.00
2019-01-20T02:22:02.305Z,-1.00
2019-01-20T02:23:07.106Z,-1.10
2019-01-20T02:24:11.852Z,-1.10
2019-01-20T02:25:16.713Z,-1.10
2019-01-20T02:26:21.471Z,-1.10
2019-01-20T02:27:26.232Z,-1.10
2019-01-20T02:28:31.061Z,-1.20
2019-01-20T02:29:36.740Z,-1.20
2019-01-20T02:30:41.579Z,-1.20
2019-01-20T02:31:46.436Z,-1.20
2019-01-20T02:32:51.195Z,-1.20
2019-01-20T02:33:55.975Z,-1.20
2019-01-20T02:35:00.748Z,-1.20
2019-01-20T02:36:05.810Z,-1.20
2019-01-20T02:37:10.529Z,-1.20
2019-01-20T02:38:15.303Z,-1.20
2019-01-20T02:39:20.060Z,-1.30
2019-01-20T02:40:24.872Z,-1.40
2019-01-20T02:41:29.567Z,-1.50
2019-01-20T02:42:34.316Z,-1.50
2019-01-20T02:43:39.157Z,-1.40
2019-01-20T02:44:43.972Z,-1.40
2019-01-20T02:45:48.709Z,-1.40
2019-01-20T02:46:53.479Z,-1.50
2019-01-20T02:47:58.188Z,-1.50
2019-01-20T02:49:02.941Z,-1.60
2019-01-20T02:50:09.124Z,-1.50
2019-01-20T02:51:13.870Z,-1.50
2019-01-20T02:52:21.639Z,-1.60
2019-01-20T02:53:26.393Z,-1.60
2019-01-20T02:54:31.125Z,-1.60
2019-01-20T02:55:36.085Z,-1.70
2019-01-20T02:56:40.840Z,-1.70
2019-01-20T02:57:45.556Z,-1.70
2019-01-20T02:58:50.277Z,-1.80
2019-01-20T02:59:55.013Z,-1.80
2019-01-20T03:00:59.787Z,-1.90
2019-01-20T03:02:04.848Z,-1.90
2019-01-20T03:03:09.555Z,-1.80
2019-01-20T03:04:14.318Z,-1.80
2019-01-20T03:05:19.626Z,-1.80
2019-01-20T03:06:24.607Z,-1.90
2019-01-20T03:07:29.351Z,-1.80
2019-01-20T03:08:34.100Z,-1.80
2019-01-20T03:09:38.827Z,-1.90
2019-01-20T03:10:43.585Z,-1.90
2019-01-20T03:11:48.597Z,-1.90
2019-01-20T03:12:53.356Z,-1.90
2019-01-20T03:13:58.112Z,-1.80
2019-01-20T03:15:02.868Z,-1.90
2019-01-20T03:16:07.719Z,-2.00
2019-01-20T03:17:12.505Z,-1.90
2019-01-20T03:18:17.238Z,-1.90
2019-01-20T03:19:21.997Z,-1.90
2019-01-20T03:20:26.775Z,-2.00
2019-01-20T03:21:31.514Z,-2.10
2019-01-20T03:22:36.511Z,-2.10
2019-01-20T03:23:41.268Z,-2.00
2019-01-20T03:24:46.013Z,-2.00
2019-01-20T03:25:50.751Z,-2.00
2019-01-20T03:26:55.609Z,-2.00
2019-01-20T03:28:00.468Z,-2.10
2019-01-20T03:29:05.224Z,-2.00
2019-01-20T03:30:16.469Z,-2.10
2019-01-20T03:31:21.266Z,-2.10
2019-01-20T03:32:26.045Z,-2.10
2019-01-20T03:33:30.803Z,-2.10
2019-01-20T03:34:35.581Z,-2.20
2019-01-20T03:35:40.339Z,-2.20
2019-01-20T03:36:45.070Z,-2.20
2019-01-20T03:37:49.946Z,-2.20
2019-01-20T03:38:54.791Z,-2.30
2019-01-20T03:39:59.499Z,-2.30
2019-01-20T03:41:04.591Z,-2.30
2019-01-20T03:42:12.029Z,-2.30
2019-01-20T03:43:16.068Z,-2.40
2019-01-20T03:44:21.483Z,-2.40
2019-01-20T03:45:26.256Z,-2.40
2019-01-20T03:46:31.045Z,-2.30
2019-01-20T03:47:35.833Z,-2.40
2019-01-20T03:48:40.710Z,-2.30
2019-01-20T03:49:45.533Z,-2.40
2019-01-20T03:50:50.425Z,-2.40
2019-01-20T03:51:55.232Z,-2.40
2019-01-20T03:52:59.979Z,-2.40
2019-01-20T03:54:04.967Z,-2.40
2019-01-20T03:55:11.445Z,-2.40
2019-01-20T03:56:16.211Z,-2.30
2019-01-20T03:57:21.057Z,-2.30
2019-01-20T03:58:25.844Z,-2.30
2019-01-20T03:59:30.663Z,-2.30
2019-01-20T04:00:35.447Z,-2.40
2019-01-20T04:01:40.203Z,-2.30
2019-01-20T04:02:46.567Z,-2.30
2019-01-20T04:03:51.321Z,-2.40
2019-01-20T04:04:56.043Z,-2.40
2019-01-20T04:06:00.922Z,-2.40
2019-01-20T04:07:05.765Z,-2.40
2019-01-20T04:08:10.627Z,-2.40
2019-01-20T04:09:15.364Z,-2.30
2019-01-20T04:10:20.145Z,-2.30
2019-01-20T04:11:24.958Z,-2.30
2019-01-20T04:12:29.694Z,-2.30
2019-01-20T04:13:34.457Z,-2.30
2019-01-20T04:14:39.188Z,-2.30
2019-01-20T04:15:43.948Z,-2.30
2019-01-20T04:16:48.775Z,-2.40
2019-01-20T04:17:53.559Z,-2.40
2019-01-20T04:18:58.291Z,-2.50
2019-01-20T04:20:03.023Z,-2.40
2019-01-20T04:21:07.774Z,-2.40
2019-01-20T04:22:12.552Z,-2.40
2019-01-20T04:23:17.309Z,-2.40
2019-01-20T04:24:22.041Z,-2.40
2019-01-20T04:25:26.880Z,-2.50
2019-01-20T04:26:31.619Z,-2.50
2019-01-20T04:27:36.414Z,-2.50
2019-01-20T04:28:41.162Z,-2.60
2019-01-20T04:29:45.892Z,-2.50
2019-01-20T04:30:51.523Z,-2.60
2019-01-20T04:31:56.291Z,-2.60
2019-01-20T04:33:01.068Z,-2.60
2019-01-20T04:34:05.957Z,-2.60
2019-01-20T04:35:11.124Z,-2.70
2019-01-20T04:36:15.884Z,-2.70
2019-01-20T04:37:20.758Z,-2.80
2019-01-20T04:38:25.519Z,-2.80
2019-01-20T04:39:30.256Z,-2.80
2019-01-20T04:40:35.042Z,-2.80
2019-01-20T04:41:40.001Z,-2.80
2019-01-20T04:42:44.787Z,-2.80
2019-01-20T04:43:49.564Z,-2.80
2019-01-20T04:44:54.299Z,-2.80
2019-01-20T04:45:59.096Z,-2.80
2019-01-20T04:47:03.986Z,-2.80
2019-01-20T04:48:08.737Z,-2.70
2019-01-20T04:49:13.618Z,-2.80
2019-01-20T04:50:20.341Z,-2.90
2019-01-20T04:51:25.099Z,-2.80
2019-01-20T04:52:29.848Z,-2.80
2019-01-20T04:53:34.905Z,-2.80
2019-01-20T04:54:39.745Z,-2.90
2019-01-20T04:55:44.475Z,-2.90
2019-01-20T04:56:49.250Z,-2.90
2019-01-20T04:57:54.838Z,-2.90
2019-01-20T04:58:59.651Z,-2.90
2019-01-20T05:00:05.580Z,-2.90
2019-01-20T05:01:10.329Z,-3.00
2019-01-20T05:02:15.046Z,-3.00
2019-01-20T05:03:19.781Z,-3.00
2019-01-20T05:04:24.559Z,-3.00
2019-01-20T05:05:29.456Z,-2.90
2019-01-20T05:06:34.213Z,-2.90
2019-01-20T05:07:38.963Z,-3.00
2019-01-20T05:08:43.723Z,-3.00
2019-01-20T05:09:48.452Z,-3.00
2019-01-20T05:10:53.259Z,-3.00
2019-01-20T05:11:58.001Z,-2.90
2019-01-20T05:13:02.744Z,-2.90
2019-01-20T05:14:07.495Z,-3.00
2019-01-20T05:15:14.972Z,-3.00
2019-01-20T05:16:19.743Z,-3.00
2019-01-20T05:17:24.469Z,-3.00
2019-01-20T05:18:29.212Z,-3.10
2019-01-20T05:19:33.954Z,-3.10
2019-01-20T05:20:38.703Z,-3.10
2019-01-20T05:21:43.492Z,-3.10
2019-01-20T05:22:48.212Z,-3.10
2019-01-20T05:23:52.970Z,-3.10
2019-01-20T05:24:57.665Z,-3.10
2019-01-20T05:26:02.567Z,-3.20
2019-01-20T05:27:07.352Z,-3.10
2019-01-20T05:28:12.081Z,-3.20
2019-01-20T05:29:16.904Z,-3.10
2019-01-20T05:30:24.190Z,-3.10
2019-01-20T05:31:29.882Z,-3.10
2019-01-20T05:32:34.657Z,-3.00
2019-01-20T05:33:39.416Z,-3.10
2019-01-20T05:34:44.256Z,-3.10
2019-01-20T05:35:49.388Z,-3.10
2019-01-20T05:36:54.175Z,-3.00
2019-01-20T05:37:58.975Z,-3.00
2019-01-20T05:39:04.383Z,-3.00
2019-01-20T05:40:10.839Z,-3.00
2019-01-20T05:41:15.595Z,-3.00
2019-01-20T05:42:20.326Z,-3.00
2019-01-20T05:43:25.153Z,-3.00
2019-01-20T05:44:30.071Z,-3.00
2019-01-20T05:45:34.916Z,-3.00
2019-01-20T05:46:39.652Z,-3.10
2019-01-20T05:47:44.393Z,-3.10
2019-01-20T05:48:49.188Z,-3.10
2019-01-20T05:49:54.012Z,-3.10
2019-01-20T05:50:58.730Z,-3.10
2019-01-20T05:52:03.484Z,-3.10
2019-01-20T05:53:08.211Z,-3.10
2019-01-20T05:54:13.023Z,-3.20
2019-01-20T05:55:17.789Z,-3.20
2019-01-20T05:56:22.548Z,-3.20
2019-01-20T05:57:27.392Z,-3.20
2019-01-20T05:58:32.162Z,-3.10
2019-01-20T05:59:36.954Z,-3.10
2019-01-20T06:00:41.725Z,-3.10
2019-01-20T06:01:46.474Z,-3.10
2019-01-20T06:02:51.300Z,-3.10
2019-01-20T06:03:56.067Z,-3.00
2019-01-20T06:05:00.886Z,-3.00
2019-01-20T06:06:05.748Z,-3.00
2019-01-20T06:07:10.475Z,-2.90
2019-01-20T06:08:15.240Z,-3.00
2019-01-20T06:09:19.984Z,-3.00
2019-01-20T06:10:24.973Z,-3.00
2019-01-20T06:11:29.695Z,-3.00
2019-01-20T06:12:34.519Z,-3.00
2019-01-20T06:13:39.273Z,-3.10
2019-01-20T06:14:44.012Z,-3.10
2019-01-20T06:15:48.789Z,-3.10
2019-01-20T06:16:53.585Z,-3.10
2019-01-20T06:17:58.325Z,-3.00
2019-01-20T06:19:03.084Z,-3.00
2019-01-20T06:20:08.679Z,-3.00
2019-01-20T06:21:13.465Z,-3.00
2019-01-20T06:22:18.360Z,-3.00
2019-01-20T06:23:23.092Z,-3.00
2019-01-20T06:24:27.864Z,-3.00
2019-01-20T06:25:32.589Z,-2.90
2019-01-20T06:26:37.444Z,-2.90
2019-01-20T06:27:42.247Z,-2.90
2019-01-20T06:28:47.011Z,-2.80
2019-01-20T06:29:51.805Z,-2.80
2019-01-20T06:30:56.579Z,-2.80
2019-01-20T06:32:02.520Z,-2.80
2019-01-20T06:33:07.230Z,-2.80
2019-01-20T06:34:11.997Z,-2.80
2019-01-20T06:35:16.895Z,-2.70
2019-01-20T06:36:21.592Z,-2.80
2019-01-20T06:37:26.388Z,-2.80
2019-01-20T06:38:31.300Z,-2.80
2019-01-20T06:39:36.209Z,-2.80
2019-01-20T06:40:41.044Z,-2.70
2019-01-20T06:41:45.801Z,-2.70
2019-01-20T06:42:50.619Z,-2.70
2019-01-20T06:43:55.348Z,-2.70
2019-01-20T06:45:00.176Z,-2.70
2019-01-20T06:46:05.229Z,-2.80
2019-01-20T06:47:09.967Z,-2.80
2019-01-20T06:48:14.845Z,-2.90
2019-01-20T06:49:19.651Z,-2.90
2019-01-20T06:50:24.638Z,-2.90
2019-01-20T06:51:29.376Z,-2.80
2019-01-20T06:52:34.172Z,-2.80
2019-01-20T06:53:39.136Z,-2.80
2019-01-20T06:54:44.049Z,-2.80
2019-01-20T06:55:48.820Z,-2.70
2019-01-20T06:56:53.871Z,-2.70
2019-01-20T06:57:58.641Z,-2.70
2019-01-20T06:59:03.456Z,-2.80
2019-01-20T07:00:11.669Z,-2.70
2019-01-20T07:01:16.400Z,-2.80
2019-01-20T07:02:21.231Z,-2.80
2019-01-20T07:03:26.127Z,-2.80
2019-01-20T07:04:31.023Z,-2.80
2019-01-20T07:05:35.986Z,-2.80
2019-01-20T07:06:40.795Z,-2.80
2019-01-20T07:07:45.803Z,-2.80
2019-01-20T07:08:50.540Z,-2.80
2019-01-20T07:09:55.533Z,-2.80
2019-01-20T07:11:00.492Z,-2.80
2019-01-20T07:12:05.291Z,-2.80
2019-01-20T07:13:11.339Z,-2.80
2019-01-20T07:14:16.357Z,-2.80
2019-01-20T07:15:23.514Z,-2.80
2019-01-20T07:16:28.247Z,-2.80
2019-01-20T07:17:32.988Z,-2.80
2019-01-20T07:18:37.753Z,-2.80
2019-01-20T07:19:42.485Z,-2.80
2019-01-20T07:20:47.373Z,-2.70
2019-01-20T07:21:52.120Z,-2.70
2019-01-20T07:22:56.960Z,-2.80
2019-01-20T07:24:01.695Z,-2.80
2019-01-20T07:25:07.121Z,-2.80
2019-01-20T07:26:11.911Z,-2.80
2019-01-20T07:27:16.727Z,-2.80
2019-01-20T07:28:21.507Z,-2.80
2019-01-20T07:29:26.296Z,-2.80
2019-01-20T07:30:31.060Z,-2.80
2019-01-20T07:31:35.897Z,-2.80
2019-01-20T07:32:41.523Z,-2.70
2019-01-20T07:33:46.288Z,-2.70
2019-01-20T07:34:51.034Z,-2.70
2019-01-20T07:35:55.836Z,-2.70
2019-01-20T07:37:00.608Z,-2.70
2019-01-20T07:38:05.656Z,-2.70
2019-01-20T07:39:10.453Z,-2.70
2019-01-20T07:40:16.451Z,-2.60
2019-01-20T07:41:21.237Z,-2.60
2019-01-20T07:42:25.988Z,-2.60
2019-01-20T07:43:30.752Z,-2.60
2019-01-20T07:44:35.481Z,-2.60
2019-01-20T07:45:40.268Z,-2.50
2019-01-20T07:46:45.059Z,-2.50
2019-01-20T07:47:49.947Z,-2.50
2019-01-20T07:48:55.005Z,-2.50
2019-01-20T07:49:59.723Z,-2.40
2019-01-20T07:51:04.566Z,-2.40
2019-01-20T07:52:09.378Z,-2.40
2019-01-20T07:53:14.236Z,-2.30
2019-01-20T07:54:19.068Z,-2.30
2019-01-20T07:55:23.921Z,-2.30
2019-01-20T07:56:28.698Z,-2.20
2019-01-20T07:57:33.461Z,-2.20
2019-01-20T07:58:38.278Z,-2.20
2019-01-20T07:59:43.076Z,-2.10
2019-01-20T08:00:47.818Z,-2.10
2019-01-20T08:01:52.532Z,-2.10
2019-01-20T08:02:57.296Z,-2.20
2019-01-20T08:04:02.168Z,-2.20
2019-01-20T08:05:07.429Z,-2.10
2019-01-20T08:06:12.209Z,-2.10
2019-01-20T08:07:17.007Z,-2.20
2019-01-20T08:08:21.832Z,-2.10
2019-01-20T08:09:26.568Z,-2.10
2019-01-20T08:10:31.824Z,-2.10
2019-01-20T08:11:36.580Z,-2.10
2019-01-20T08:12:41.348Z,-2.10
2019-01-20T08:13:46.160Z,-2.10
2019-01-20T08:14:50.988Z,-2.10
2019-01-20T08:15:55.728Z,-2.10
2019-01-20T08:17:00.454Z,-2.10
2019-01-20T08:18:05.604Z,-2.00
2019-01-20T08:19:10.500Z,-2.00
2019-01-20T08:20:17.608Z,-2.00
2019-01-20T08:21:22.601Z,-2.00
2019-01-20T08:22:27.446Z,-2.00
2019-01-20T08:23:32.447Z,-1.90
2019-01-20T08:24:37.328Z,-1.90
2019-01-20T08:25:42.208Z,-2.00
2019-01-20T08:26:48.045Z,-2.00
2019-01-20T08:27:53.050Z,-1.90
2019-01-20T08:28:57.921Z,-1.90
2019-01-20T08:30:02.889Z,-1.90
2019-01-20T08:31:07.687Z,-1.90
2019-01-20T08:32:12.641Z,-1.80
2019-01-20T08:33:17.569Z,-1.70
2019-01-20T08:34:22.352Z,-1.80
2019-01-20T08:35:27.257Z,-1.80
2019-01-20T08:36:32.085Z,-1.70
2019-01-20T08:37:36.849Z,-1.70
2019-01-20T08:38:41.878Z,-1.60
2019-01-20T08:39:46.752Z,-1.60
2019-01-20T08:40:51.636Z,-1.70
2019-01-20T08:41:56.520Z,-1.60
2019-01-20T08:43:01.774Z,-1.60
2019-01-20T08:44:07.068Z,-1.60
2019-01-20T08:45:22.432Z,-1.50
2019-01-20T08:46:38.456Z,-1.50
2019-01-20T08:47:48.178Z,-1.50
2019-01-20T08:48:53.108Z,-1.50
2019-01-20T08:49:57.951Z,-1.40
2019-01-20T08:51:02.848Z,-1.40
2019-01-20T08:52:07.867Z,-1.40
2019-01-20T08:53:12.756Z,-1.40
2019-01-20T08:54:17.673Z,-1.30
2019-01-20T08:55:22.668Z,-1.30
2019-01-20T08:56:28.068Z,-1.30
2019-01-20T08:57:32.925Z,-1.20
2019-01-20T08:58:37.810Z,-1.10
2019-01-20T08:59:42.729Z,-1.00
2019-01-20T09:00:47.528Z,-1.00
2019-01-20T09:01:52.369Z,-1.00
2019-01-20T09:02:57.121Z,-1.00
2019-01-20T09:04:01.893Z,-0.90
2019-01-20T09:05:07.073Z,-0.90
2019-01-20T09:06:11.913Z,-0.90
2019-01-20T09:07:16.770Z,-0.90
2019-01-20T09:08:21.690Z,-0.80
2019-01-20T09:09:26.431Z,-0.80
2019-01-20T09:10:31.267Z,-0.80
2019-01-20T09:11:36.248Z,-0.70
2019-01-20T09:12:41.180Z,-0.70
2019-01-20T09:13:45.948Z,-0.70
2019-01-20T09:14:50.780Z,-0.70
2019-01-20T09:15:55.660Z,-0.80
2019-01-20T09:17:00.602Z,-0.70
2019-01-20T09:18:06.324Z,-0.70
2019-01-20T09:19:11.365Z,-0.70
2019-01-20T09:20:16.308Z,-0.80
2019-01-20T09:21:21.249Z,-0.70
2019-01-20T09:22:26.252Z,-0.80
2019-01-20T09:23:31.174Z,-0.80
2019-01-20T09:24:36.006Z,-0.80
2019-01-20T09:25:40.859Z,-0.70
2019-01-20T09:26:45.800Z,-0.70
2019-01-20T09:27:50.733Z,-0.50
2019-01-20T09:28:55.590Z,-0.50
2019-01-20T09:30:00.449Z,-0.50
2019-01-20T09:31:05.291Z,-0.40
2019-01-20T09:32:10.364Z,-0.30
2019-01-20T09:33:15.253Z,-0.20
2019-01-20T09:34:20.167Z,-0.10
2019-01-20T09:35:25.197Z,-0.10
2019-01-20T09:36:30.276Z,-0.10
2019-01-20T09:37:35.205Z,-0.10
2019-01-20T09:38:40.077Z,-0.20
2019-01-20T09:39:45.063Z,-0.20
2019-01-20T09:40:50.077Z,-0.20
2019-01-20T09:41:54.917Z,-0.20
2019-01-20T09:42:59.965Z,-0.20
2019-01-20T09:44:04.959Z,-0.20
2019-01-20T09:45:14.716Z,-0.20
2019-01-20T09:46:19.622Z,-0.20
2019-01-20T09:47:24.487Z,-0.30
2019-01-20T09:48:29.314Z,-0.30
2019-01-20T09:49:34.283Z,-0.40
2019-01-20T09:50:39.171Z,-0.40
2019-01-20T09:51:44.220Z,-0.30
2019-01-20T09:52:49.121Z,-0.30
2019-01-20T09:53:57.608Z,-0.20
2019-01-20T09:55:03.446Z,-0.20
2019-01-20T09:56:08.490Z,-0.10
2019-01-20T09:57:13.316Z,-0.20
2019-01-20T09:58:19.364Z,-0.20
2019-01-20T09:59:24.378Z,-0.10
2019-01-20T10:00:30.562Z,0.00
2019-01-20T10:01:35.523Z,-0.10
2019-01-20T10:02:40.464Z,-0.10
2019-01-20T10:03:45.434Z,-0.10
2019-01-20T10:04:50.296Z,-0.10
2019-01-20T10:05:55.344Z,0.00
2019-01-20T10:07:00.291Z,0.00
2019-01-20T10:08:05.529Z,0.00
2019-01-20T10:09:10.493Z,0.00
2019-01-20T10:10:16.476Z,0.10
2019-01-20T10:11:21.339Z,0.10
2019-01-20T10:12:26.246Z,0.10
2019-01-20T10:13:31.170Z,0.10
2019-01-20T10:14:36.168Z,0.10
2019-01-20T10:15:41.058Z,0.10
2019-01-20T10:16:45.925Z,0.10
2019-01-20T10:17:50.929Z,0.10
2019-01-20T10:18:56.096Z,0.10
2019-01-20T10:20:01.008Z,0.00
2019-01-20T10:21:11.952Z,0.10
2019-01-20T10:22:16.845Z,0.00
2019-01-20T10:23:22.610Z,0.10
2019-01-20T10:24:27.445Z,0.10
2019-01-20T10:25:32.289Z,0.10
2019-01-20T10:26:37.952Z,0.20
2019-01-20T10:27:43.657Z,0.20
2019-01-20T10:28:48.520Z,0.30
2019-01-20T10:29:53.374Z,0.40
2019-01-20T10:30:58.169Z,0.40
2019-01-20T10:32:03.059Z,0.40
2019-01-20T10:33:12.486Z,0.30
2019-01-20T10:34:17.428Z,0.40
2019-01-20T10:35:25.648Z,0.40
2019-01-20T10:36:30.444Z,0.40
2019-01-20T10:37:35.891Z,0.30
2019-01-20T10:38:40.737Z,0.30
2019-01-20T10:39:45.490Z,0.30
2019-01-20T10:40:50.366Z,0.10
2019-01-20T10:41:55.204Z,0.10
2019-01-20T10:43:00.050Z,0.10
2019-01-20T10:44:05.134Z,0.10
2019-01-20T10:45:10.805Z,0.20
2019-01-20T10:46:16.625Z,0.20
2019-01-20T10:47:21.564Z,0.20
2019-01-20T10:48:26.696Z,0.10
2019-01-20T10:49:31.484Z,0.10
2019-01-20T10:50:39.762Z,0.10
2019-01-20T10:51:44.659Z,0.10
2019-01-20T10:52:49.579Z,0.00
2019-01-20T10:53:54.580Z,0.00
2019-01-20T10:54:59.466Z,0.10
2019-01-20T10:56:04.240Z,0.20
2019-01-20T10:57:09.005Z,0.20
2019-01-20T10:58:14.001Z,0.20
2019-01-20T10:59:18.981Z,0.20
2019-01-20T11:00:26.552Z,0.30
2019-01-20T11:01:31.240Z,0.30
2019-01-20T11:02:38.496Z,0.30
2019-01-20T11:03:43.229Z,0.40
2019-01-20T11:04:48.056Z,0.40
2019-01-20T11:05:52.852Z,0.50
2019-01-20T11:06:57.594Z,0.50
2019-01-20T11:08:02.376Z,0.50
2019-01-20T11:09:07.803Z,0.50
2019-01-20T11:10:12.800Z,0.50
2019-01-20T11:11:17.565Z,0.50
2019-01-20T11:12:22.298Z,0.40
2019-01-20T11:13:27.154Z,0.40
2019-01-20T11:14:31.971Z,0.30
2019-01-20T11:15:36.732Z,0.30
2019-01-20T11:16:41.502Z,0.30
2019-01-20T11:17:46.243Z,0.30
2019-01-20T11:18:50.992Z,0.30
2019-01-20T11:19:55.758Z,0.30
2019-01-20T11:21:00.473Z,0.40
2019-01-20T11:22:05.346Z,0.40
2019-01-20T11:23:10.217Z,0.40
2019-01-20T11:24:15.008Z,0.50
2019-01-20T11:25:23.057Z,0.50
2019-01-20T11:26:27.965Z,0.60
2019-01-20T11:27:32.815Z,0.80
2019-01-20T11:28:37.649Z,1.10
2019-01-20T11:29:42.463Z,1.30
2019-01-20T11:30:47.525Z,1.40
2019-01-20T11:31:52.365Z,1.40
2019-01-20T11:32:57.147Z,1.70
2019-01-20T11:34:01.892Z,1.70
2019-01-20T11:35:08.302Z,1.70
2019-01-20T11:36:13.122Z,1.70
2019-01-20T11:37:19.563Z,1.60
2019-01-20T11:38:24.297Z,1.50
2019-01-20T11:39:29.080Z,1.30
2019-01-20T11:40:33.941Z,1.20
2019-01-20T11:41:38.748Z,1.10
2019-01-20T11:42:43.621Z,1.20
2019-01-20T11:43:48.394Z,1.40
2019-01-20T11:44:53.158Z,1.40
2019-01-20T11:45:57.887Z,1.50
2019-01-20T11:47:02.679Z,1.50
2019-01-20T11:48:07.903Z,1.50
2019-01-20T11:49:12.645Z,1.50
2019-01-20T11:50:17.546Z,1.40
2019-01-20T11:51:22.310Z,1.50
2019-01-20T11:52:27.180Z,1.40
2019-01-20T11:53:31.955Z,1.40
2019-01-20T11:54:37.611Z,1.30
2019-01-20T11:55:42.354Z,1.20
2019-01-20T11:56:47.270Z,1.00
2019-01-20T11:57:52.106Z,0.80
2019-01-20T11:58:56.841Z,0.70
2019-01-20T12:00:01.642Z,0.70
2019-01-20T12:01:06.560Z,0.70
2019-01-20T12:02:11.424Z,0.70
2019-01-20T12:03:16.322Z,0.60
2019-01-20T12:04:21.107Z,0.60
2019-01-20T12:05:25.882Z,0.60
2019-01-20T12:06:30.720Z,0.60
2019-01-20T12:07:35.481Z,0.60
2019-01-20T12:08:40.269Z,0.70
2019-01-20T12:09:45.044Z,0.70
2019-01-20T12:10:49.785Z,0.80
2019-01-20T12:11:54.484Z,0.70
2019-01-20T12:13:10.680Z,0.70
2019-01-20T12:14:15.586Z,0.70
2019-01-20T12:15:20.349Z,0.60
2019-01-20T12:16:25.068Z,0.70
2019-01-20T12:17:29.955Z,0.70
2019-01-20T12:18:34.672Z,0.60
2019-01-20T12:19:39.472Z,0.70
2019-01-20T12:20:44.189Z,0.70
2019-01-20T12:21:48.937Z,0.70
2019-01-20T12:22:53.962Z,0.80
2019-01-20T12:23:58.901Z,0.70
2019-01-20T12:25:03.966Z,0.60
2019-01-20T12:26:08.888Z,0.40
2019-01-20T12:27:13.748Z,0.40
2019-01-20T12:28:18.732Z,0.30
2019-01-20T12:29:23.646Z,0.40
2019-01-20T12:30:30.503Z,0.50
2019-01-20T12:31:35.373Z,0.50
2019-01-20T12:32:40.267Z,0.60
2019-01-20T12:33:45.133Z,0.70
2019-01-20T12:34:49.906Z,0.90
2019-01-20T12:35:54.926Z,0.90
2019-01-20T12:36:59.815Z,0.90
2019-01-20T12:38:04.845Z,0.90
2019-01-20T12:39:10.175Z,0.90
2019-01-20T12:40:18.725Z,0.80
2019-01-20T12:41:23.687Z,0.80
2019-01-20T12:42:28.498Z,0.80
2019-01-20T12:43:33.365Z,0.90
2019-01-20T12:44:38.175Z,0.90
2019-01-20T12:45:43.006Z,0.90
2019-01-20T12:46:47.889Z,0.90
2019-01-20T12:47:52.777Z,0.80
2019-01-20T12:48:57.691Z,0.80
2019-01-20T12:50:02.722Z,0.80
2019-01-20T12:51:12.342Z,0.70
2019-01-20T12:52:14.542Z,0.70
2019-01-20T12:53:19.360Z,0.70
2019-01-20T12:54:24.217Z,0.70
2019-01-20T12:55:29.280Z,0.60
2019-01-20T12:56:34.196Z,0.70
2019-01-20T12:57:38.969Z,0.60
2019-01-20T12:58:43.751Z,0.60
2019-01-20T12:59:48.575Z,0.60
2019-01-20T13:00:53.340Z,0.60
2019-01-20T13:01:58.261Z,0.60
2019-01-20T13:03:02.982Z,0.60
2019-01-20T13:04:07.855Z,0.70
2019-01-20T13:05:13.267Z,0.80
2019-01-20T13:06:18.124Z,0.90
2019-01-20T13:07:23.084Z,0.90
2019-01-20T13:08:28.063Z,1.10
2019-01-20T13:09:32.973Z,1.10
2019-01-20T13:10:37.969Z,1.20
2019-01-20T13:11:42.813Z,1.20
2019-01-20T13:12:48.094Z,1.10
2019-01-20T13:13:52.949Z,0.90
2019-01-20T13:14:57.795Z,1.00
2019-01-20T13:16:02.648Z,0.90
2019-01-20T13:17:07.531Z,0.90
2019-01-20T13:18:12.495Z,0.80
2019-01-20T13:19:17.291Z,0.80
2019-01-20T13:20:23.848Z,0.80
2019-01-20T13:21:28.726Z,0.80
2019-01-20T13:22:33.619Z,0.70
2019-01-20T13:23:38.475Z,0.70
2019-01-20T13:24:43.246Z,0.70
2019-01-20T13:25:48.053Z,0.60
2019-01-20T13:26:52.870Z,0.60
2019-01-20T13:27:57.833Z,0.50
2019-01-20T13:29:02.679Z,0.50
2019-01-20T13:30:10.432Z,0.50
2019-01-20T13:31:15.391Z,0.50
2019-01-20T13:32:20.233Z,0.50
2019-01-20T13:33:25.064Z,0.50
2019-01-20T13:34:29.958Z,0.40
2019-01-20T13:35:35.034Z,0.40
2019-01-20T13:36:39.991Z,0.40
2019-01-20T13:37:47.587Z,0.40
2019-01-20T13:38:52.430Z,0.40
2019-01-20T13:39:57.355Z,0.40
2019-01-20T13:41:13.082Z,0.30
2019-01-20T13:42:17.926Z,0.30
2019-01-20T13:43:22.827Z,0.30
2019-01-20T13:44:27.953Z,0.40
2019-01-20T13:45:32.869Z,0.40
2019-01-20T13:46:37.792Z,0.30
2019-01-20T13:47:48.684Z,0.30
2019-01-20T13:48:49.393Z,0.30
2019-01-20T13:49:54.205Z,0.30
2019-01-20T13:50:59.007Z,0.30
2019-01-20T13:52:04.030Z,0.30
2019-01-20T13:53:08.828Z,0.30
2019-01-20T13:54:13.799Z,0.30
2019-01-20T13:55:18.749Z,0.20
2019-01-20T13:56:23.518Z,0.20
2019-01-20T13:57:28.320Z,0.20
2019-01-20T13:58:33.113Z,0.20
2019-01-20T13:59:37.950Z,0.20
2019-01-20T14:00:42.845Z,0.20
2019-01-20T14:01:47.733Z,0.20
2019-01-20T14:02:52.638Z,0.20
2019-01-20T14:03:57.432Z,0.10
2019-01-20T14:05:02.320Z,0.20